Time;durP1;ratioP1;P1;durP2;ratioP2;P2;SDS_P1;SDS_P2;PMS_P1;PMS_P2;Temp;Humidity;BMP_temperature;BMP_pressure;BME280_temperature;BME280_humidity;BME280_pressure;Samples;Min_cycle;Max_cycle;Signal;HPM_P1;HPM_P2
2021/06/27 00:02:00;;;;;;;1.88;0.28;;;22.50;96.70;;;21.93;60.72;100513.53;5027822;28;20040;-57
2021/06/27 00:04:26;;;;;;;1.23;0.30;;;22.40;96.90;;;21.88;60.61;100521.31;5029438;28;20037;-54
2021/06/27 00:06:52;;;;;;;4.15;0.30;;;22.40;97.00;;;21.84;61.06;100522.78;5024894;28;20037;-60
2021/06/27 00:09:18;;;;;;;3.83;0.47;;;22.30;97.10;;;21.80;61.04;100513.63;5026774;28;20041;-51
2021/06/27 00:11:44;;;;;;;1.00;0.50;;;22.30;97.20;;;21.73;61.39;100516.34;5027462;28;20103;-59
2021/06/27 00:14:10;;;;;;;1.50;0.30;;;22.30;97.30;;;21.61;62.07;100510.13;5028375;28;20124;-56
2021/06/27 00:16:39;;;;;;;0.45;0.20;;;22.20;97.60;;;21.50;62.37;100508.97;5024445;28;20445;-53
2021/06/27 00:19:06;;;;;;;4.30;0.30;;;22.10;97.90;;;21.50;62.17;100500.22;5008688;28;20038;-60
2021/06/27 00:21:33;;;;;;;2.00;0.40;;;22.00;98.00;;;21.59;61.66;100490.16;5022194;28;20034;-59
2021/06/27 00:23:58;;;;;;;0.60;0.30;;;22.00;97.90;;;21.63;61.46;100496.66;5027401;28;20358;-52
2021/06/27 00:26:27;;;;;;;0.50;0.20;;;22.10;97.80;;;21.67;61.48;100503.16;5026194;28;20045;-57
2021/06/27 00:28:53;;;;;;;3.10;0.40;;;22.10;97.90;;;21.69;60.97;100501.09;5025895;28;20037;-55
2021/06/27 00:31:20;;;;;;;1.85;0.70;;;22.10;97.70;;;21.79;61.08;100501.41;5023765;28;20080;-56
2021/06/27 00:33:46;;;;;;;2.25;0.60;;;22.20;97.60;;;21.81;61.46;100509.94;5026899;28;20473;-54
2021/06/27 00:36:13;;;;;;;3.60;0.30;;;22.20;97.80;;;21.73;61.94;100505.75;5027980;28;20029;-56
2021/06/27 00:38:39;;;;;;;3.28;0.40;;;22.30;98.10;;;21.64;62.40;100508.88;5026990;28;20112;-58
2021/06/27 00:41:06;;;;;;;3.92;0.30;;;22.20;98.40;;;21.59;63.26;100506.06;5027178;28;20780;-55
2021/06/27 00:43:33;;;;;;;1.83;0.40;;;22.10;98.70;;;21.56;63.02;100501.19;5021897;28;20041;-49
2021/06/27 00:46:01;;;;;;;1.65;0.85;;;22.10;98.90;;;21.58;62.54;100499.94;5027168;28;20068;-47
2021/06/27 00:48:27;;;;;;;2.05;0.30;;;22.10;98.80;;;21.60;62.00;100502.38;5027733;28;20040;-55
2021/06/27 00:50:56;;;;;;;2.58;0.30;;;22.10;98.50;;;21.46;62.67;100502.47;5026306;28;20041;-58
2021/06/27 00:53:23;;;;;;;3.08;0.30;;;22.00;98.40;;;21.37;62.56;100503.75;5027458;28;20033;-54
2021/06/27 00:55:57;;;;;;;1.20;0.30;;;21.90;98.50;;;21.38;62.32;100509.88;5024391;28;20159;-55
2021/06/27 00:58:32;;;;;;;2.17;0.30;;;21.90;98.60;;;21.33;62.77;100504.41;5024185;28;20033;-50
2021/06/27 01:01:00;;;;;;;1.38;0.40;;;21.80;98.60;;;21.28;62.68;100501.56;5027816;28;20057;-56
2021/06/27 01:03:26;;;;;;;6.10;0.40;;;21.80;98.60;;;21.23;62.82;100502.25;5027018;28;20080;-57
2021/06/27 01:05:54;;;;;;;2.00;0.30;;;21.70;98.60;;;21.20;62.55;100502.63;5027875;28;20389;-56
2021/06/27 01:08:20;;;;;;;3.78;0.40;;;21.70;98.80;;;21.25;62.09;100509.97;5026205;28;20373;-55
2021/06/27 01:10:48;;;;;;;0.60;0.30;;;21.70;98.70;;;21.26;62.41;100504.47;5022946;28;20117;-56
2021/06/27 01:13:17;;;;;;;1.98;0.25;;;21.70;98.60;;;21.24;62.19;100503.88;5025588;28;20039;-52
2021/06/27 01:15:44;;;;;;;1.52;0.30;;;21.70;98.60;;;21.15;62.25;100500.63;5027685;28;20030;-54
2021/06/27 01:18:10;;;;;;;1.98;0.30;;;21.70;98.70;;;21.14;62.68;100503.47;5013338;28;20133;-55
2021/06/27 01:20:39;;;;;;;2.83;0.50;;;21.70;98.90;;;21.06;63.22;100501.06;5027775;28;20044;-52
2021/06/27 01:23:13;;;;;;;2.70;0.30;;;21.60;99.10;;;21.02;63.70;100500.69;5026944;28;20126;-54
2021/06/27 01:25:46;;;;;;;0.88;0.30;;;21.60;99.40;;;21.06;63.30;100498.41;5026581;28;20042;-53
2021/06/27 01:28:13;;;;;;;1.75;0.40;;;21.50;99.30;;;21.02;63.32;100505.16;5025528;28;20060;-54
2021/06/27 01:30:41;;;;;;;1.35;0.30;;;21.50;99.50;;;20.79;64.06;100501.22;5026617;28;20029;-51
2021/06/27 01:33:13;;;;;;;3.97;0.50;;;21.40;99.80;;;20.59;65.22;100499.66;5026083;28;20467;-58
2021/06/27 01:35:40;;;;;;;1.88;0.40;;;21.20;99.90;;;20.48;65.44;100506.41;5017065;28;20040;-58
2021/06/27 01:38:07;;;;;;;0.57;0.30;;;21.10;99.90;;;20.44;65.49;100498.06;5007754;28;20420;-54
2021/06/27 01:40:33;;;;;;;2.03;0.40;;;21.00;99.90;;;20.44;65.59;100497.25;5025128;28;20243;-54
2021/06/27 01:43:15;;;;;;;2.20;0.60;;;21.00;99.90;;;20.36;66.79;100500.91;5028974;28;20049;-56
2021/06/27 01:45:50;;;;;;;2.45;0.30;;;20.90;99.90;;;20.26;66.90;100492.59;5027378;28;20052;-50
2021/06/27 01:48:16;;;;;;;2.15;0.30;;;20.90;99.90;;;20.22;66.77;100494.03;5040908;28;20034;-56
2021/06/27 01:50:47;;;;;;;1.90;0.30;;;20.80;99.90;;;20.19;66.85;100494.44;5022583;28;20040;-55
2021/06/27 01:53:16;;;;;;;4.57;0.68;;;20.70;99.90;;;20.19;66.91;100489.97;5023983;28;20037;-54
2021/06/27 01:55:43;;;;;;;3.13;0.60;;;20.70;99.90;;;20.19;66.99;100495.25;5024660;28;20033;-54
2021/06/27 01:58:10;;;;;;;0.60;0.25;;;20.70;99.90;;;20.17;66.98;100486.72;5026185;28;20045;-51
2021/06/27 02:00:37;;;;;;;3.38;0.70;;;20.70;99.90;;;20.20;67.11;100496.88;5027057;28;20037;-57
2021/06/27 02:03:04;;;;;;;1.38;0.95;;;20.70;99.90;;;20.20;67.33;100501.38;5023321;28;20064;-57
2021/06/27 02:05:31;;;;;;;1.17;0.40;;;20.70;99.90;;;20.18;67.55;100498.09;5026909;28;20119;-54
2021/06/27 02:07:58;;;;;;;2.67;0.30;;;20.70;99.90;;;20.10;67.83;100501.78;5023853;28;20083;-55
2021/06/27 02:10:27;;;;;;;3.00;0.50;;;20.70;99.90;;;20.11;67.96;100498.13;5021980;28;20035;-52
2021/06/27 02:12:55;;;;;;;2.28;0.35;;;20.70;99.90;;;20.04;68.06;100494.66;5026817;28;20037;-54
2021/06/27 02:15:21;;;;;;;3.05;0.50;;;20.60;99.90;;;20.00;68.37;100496.09;5029283;28;20497;-55
2021/06/27 02:18:08;;;;;;;0.70;0.32;;;20.60;99.90;;;20.05;68.59;100498.94;5029692;28;20030;-53
2021/06/27 02:20:35;;;;;;;1.70;0.43;;;20.60;99.90;;;20.07;68.22;100502.19;5030047;28;20073;-51
2021/06/27 02:23:02;;;;;;;3.35;0.30;;;20.60;99.90;;;20.05;68.17;100500.75;5025411;28;20053;-52
2021/06/27 02:25:28;;;;;;;2.28;0.30;;;20.60;99.90;;;19.99;68.40;100499.75;5028884;28;20033;-55
2021/06/27 02:27:54;;;;;;;1.27;0.40;;;20.60;99.90;;;19.97;68.15;100501.78;5029399;28;20427;-58
2021/06/27 02:30:21;;;;;;;4.43;0.57;;;20.50;99.90;;;19.93;68.30;100500.56;5030532;28;20397;-57
2021/06/27 02:32:47;;;;;;;1.83;0.40;;;20.50;99.90;;;19.89;68.29;100496.69;5028548;28;20069;-57
2021/06/27 02:35:14;;;;;;;0.50;0.30;;;20.40;99.90;;;19.91;68.33;100496.50;5030393;28;20128;-52
2021/06/27 02:37:42;;;;;;;2.20;0.40;;;20.40;99.90;;;19.97;67.99;100488.56;5029538;28;20203;-56
2021/06/27 02:40:12;;;;;;;1.65;0.50;;;20.40;99.90;;;20.05;67.78;100485.72;5029217;28;20276;-55
2021/06/27 02:42:38;;;;;;;3.67;0.50;;;20.50;99.90;;;20.18;67.13;100491.00;5024902;28;20052;-54
2021/06/27 02:45:06;;;;;;;3.08;0.50;;;20.60;99.90;;;20.14;67.57;100483.66;5028164;28;20033;-54
2021/06/27 02:47:33;;;;;;;2.97;0.73;;;20.60;99.90;;;20.18;67.33;100485.69;5030177;28;20503;-55
2021/06/27 02:49:59;;;;;;;0.93;0.50;;;20.60;99.90;;;20.13;67.59;100485.50;5029229;28;20429;-58
2021/06/27 02:52:25;;;;;;;1.80;0.40;;;20.70;99.90;;;20.13;67.36;100490.78;5030138;28;20112;-60
2021/06/27 02:54:51;;;;;;;0.90;0.50;;;20.70;99.90;;;20.16;66.86;100489.56;5028017;28;20037;-56
2021/06/27 02:57:17;;;;;;;1.60;0.25;;;20.60;99.90;;;20.32;65.93;100486.47;5028850;28;20049;-51
2021/06/27 02:59:43;;;;;;;2.58;0.38;;;20.70;99.90;;;20.40;65.30;100488.09;5028977;28;20041;-55
2021/06/27 03:02:09;;;;;;;1.30;0.40;;;20.80;99.90;;;20.47;64.58;100487.06;5028781;28;20032;-58
2021/06/27 03:04:35;;;;;;;4.78;0.40;;;20.90;99.90;;;20.57;64.27;100481.34;5026245;28;20041;-56
2021/06/27 03:07:01;;;;;;;0.80;0.30;;;21.00;99.90;;;20.54;64.20;100476.47;5029080;28;20029;-55
2021/06/27 03:09:27;;;;;;;1.65;0.30;;;21.00;99.90;;;20.56;64.23;100484.19;5027642;28;20416;-58
2021/06/27 03:11:52;;;;;;;1.25;0.40;;;21.00;99.90;;;20.55;63.87;100480.72;5029811;28;20025;-58
2021/06/27 03:14:18;;;;;;;1.05;0.30;;;21.00;99.90;;;20.54;64.08;100479.91;5026315;28;20428;-54
2021/06/27 03:16:44;;;;;;;2.45;0.30;;;21.00;99.90;;;20.50;64.30;100475.25;5028754;28;20033;-52
2021/06/27 03:19:13;;;;;;;1.17;0.47;;;21.00;99.90;;;20.48;64.55;100472.00;5029677;28;20076;-57
2021/06/27 03:21:40;;;;;;;2.55;0.30;;;21.00;99.90;;;20.44;64.38;100476.09;5026775;28;20185;-55
2021/06/27 03:24:06;;;;;;;0.80;0.30;;;21.00;99.90;;;20.26;65.39;100473.28;5028439;28;20033;-53
2021/06/27 03:26:32;;;;;;;3.30;0.40;;;20.90;99.90;;;20.24;65.24;100476.13;5029467;28;20044;-49
2021/06/27 03:28:58;;;;;;;3.60;0.63;;;20.80;99.90;;;20.34;64.72;100473.84;5024213;28;20061;-48
2021/06/27 03:31:24;;;;;;;0.90;0.30;;;20.80;99.90;;;20.39;64.59;100471.41;5027827;28;20140;-58
2021/06/27 03:33:50;;;;;;;1.20;0.40;;;20.90;99.90;;;20.41;64.56;100469.38;5028328;28;20132;-52
2021/06/27 03:36:17;;;;;;;1.42;0.68;;;20.90;99.90;;;20.40;64.57;100469.56;5022045;28;20080;-57
2021/06/27 03:38:51;;;;;;;3.47;0.38;;;20.90;99.90;;;20.44;64.40;100465.50;5026386;28;20029;-50
2021/06/27 03:41:20;;;;;;;1.75;0.40;;;21.00;99.90;;;20.53;64.29;100474.84;5024344;28;20065;-52
2021/06/27 03:43:46;;;;;;;1.13;0.40;;;21.00;99.90;;;20.53;64.42;100472.19;5014799;28;20076;-50
2021/06/27 03:46:14;;;;;;;1.40;0.20;;;21.10;99.90;;;20.48;64.88;100479.94;5028544;28;20269;-52
2021/06/27 03:48:40;;;;;;;4.82;0.35;;;21.10;99.90;;;20.46;64.90;100479.34;5028117;28;20036;-59
2021/06/27 03:51:06;;;;;;;1.40;0.40;;;21.10;99.90;;;20.37;65.33;100478.72;5029031;28;20034;-54
2021/06/27 03:56:07;;;;;;;;;;;21.00;99.90;;;20.41;65.76;100479.94;5172502;22;20065;-56
2021/06/27 03:58:33;;;;;;;7.35;0.40;;;21.00;99.90;;;20.49;64.73;100481.56;5037869;28;19928;-52
2021/06/27 04:00:59;;;;;;;3.00;0.30;;;21.00;99.90;;;20.51;64.51;100476.88;5048675;28;20037;-52
2021/06/27 04:03:25;;;;;;;5.53;0.82;;;21.10;99.90;;;20.66;64.28;100482.72;5034643;28;20040;-53
2021/06/27 04:05:51;;;;;;;2.60;0.50;;;21.10;99.90;;;20.84;63.79;100487.31;5033301;28;20447;-50
2021/06/27 04:08:17;;;;;;;3.33;0.30;;;21.20;99.90;;;21.59;61.78;100480.38;5043478;28;20512;-56
2021/06/27 04:10:43;;;;;;;1.00;0.30;;;22.00;99.90;;;22.59;59.02;100486.34;5042068;28;20440;-55
2021/06/27 04:13:09;;;;;;;2.55;0.30;;;23.30;98.10;;;23.62;56.31;100488.00;5034220;28;20155;-55
2021/06/27 04:15:35;;;;;;;4.28;0.38;;;24.90;94.80;;;24.70;53.73;100485.59;5033474;28;20063;-53
2021/06/27 04:18:00;;;;;;;4.88;0.50;;;26.50;90.90;;;25.69;51.12;100485.22;5049283;28;20020;-53
2021/06/27 04:20:26;;;;;;;2.70;0.30;;;27.70;84.10;;;26.29;49.33;100485.28;5068168;28;20040;-57
2021/06/27 04:22:52;;;;;;;3.67;0.45;;;28.70;76.90;;;26.83;48.09;100481.94;5060556;28;20040;-57
2021/06/27 04:25:18;;;;;;;1.80;0.20;;;29.30;72.70;;;27.86;45.71;100486.09;5026683;28;20084;-53
2021/06/27 04:27:44;;;;;;;2.78;0.30;;;30.30;68.00;;;27.91;45.53;100502.16;5028197;28;20041;-57
2021/06/27 04:30:11;;;;;;;5.70;0.30;;;30.80;65.00;;;28.24;44.52;100503.75;5033443;28;20106;-52
2021/06/27 04:32:37;;;;;;;4.40;0.52;;;31.10;63.20;;;28.62;43.67;100501.75;5031250;28;20044;-54
2021/06/27 04:35:06;;;;;;;0.85;0.30;;;31.50;61.10;;;29.38;41.97;100504.59;5028194;28;20029;-49
2021/06/27 04:37:33;;;;;;;1.05;0.30;;;32.10;59.40;;;29.90;40.73;100508.91;5042557;28;20041;-58
2021/06/27 04:39:59;;;;;;;2.40;0.30;;;32.50;58.00;;;30.47;39.60;100510.38;5050484;28;20211;-54
2021/06/27 04:42:25;;;;;;;2.22;0.30;;;33.00;56.40;;;30.63;39.35;100510.06;5027880;28;20037;-52
2021/06/27 04:44:51;;;;;;;5.15;0.30;;;33.70;54.70;;;30.46;39.34;100504.19;5030775;28;20048;-57
2021/06/27 04:47:17;;;;;;;0.88;0.20;;;33.60;53.90;;;30.57;39.47;100511.16;5027907;28;20037;-55
2021/06/27 04:49:43;;;;;;;3.25;0.50;;;34.10;53.00;;;31.46;37.64;100503.88;5031274;28;20041;-57
2021/06/27 04:52:10;;;;;;;7.38;0.40;;;34.40;52.50;;;31.92;36.90;100498.91;5027802;28;20113;-56
2021/06/27 04:54:37;;;;;;;3.40;0.20;;;35.20;50.90;;;31.76;36.42;100507.41;5027802;28;20059;-56
2021/06/27 04:57:04;;;;;;;1.02;0.28;;;35.30;49.80;;;31.76;36.29;100513.59;5039740;28;20033;-54
2021/06/27 04:59:30;;;;;;;4.53;0.40;;;35.40;49.40;;;31.77;36.13;100506.31;5047541;28;20028;-55
2021/06/27 05:01:56;;;;;;;2.58;0.30;;;35.50;48.90;;;32.06;36.22;100501.72;5047442;28;20040;-55
2021/06/27 05:04:22;;;;;;;7.63;0.40;;;35.80;48.30;;;32.66;34.99;100502.88;5047235;28;20033;-56
2021/06/27 05:06:48;;;;;;;0.65;0.22;;;36.40;47.50;;;33.10;34.06;100504.44;5047769;28;20072;-58
2021/06/27 05:09:14;;;;;;;2.20;0.40;;;36.80;46.70;;;33.52;33.70;100502.72;5047623;28;20368;-55
2021/06/27 05:11:40;;;;;;;1.33;0.30;;;36.90;46.30;;;33.61;33.88;100500.91;5047303;28;20368;-57
2021/06/27 05:14:06;;;;;;;0.60;0.30;;;37.10;46.20;;;33.69;33.89;100496.75;5047748;28;20029;-58
2021/06/27 05:16:32;;;;;;;1.27;0.35;;;37.30;46.40;;;33.45;34.31;100492.31;5047294;28;20501;-54
2021/06/27 05:18:58;;;;;;;1.35;0.20;;;37.40;45.70;;;33.61;34.19;100488.22;5047093;28;20040;-57
2021/06/27 05:21:24;;;;;;;1.67;0.30;;;37.40;45.60;;;33.98;33.36;100483.81;5047574;28;20167;-54
2021/06/27 05:23:50;;;;;;;1.40;0.40;;;37.50;45.60;;;34.19;33.01;100478.78;5047311;28;20032;-52
2021/06/27 05:26:16;;;;;;;2.70;0.38;;;37.90;44.90;;;34.61;32.34;100480.34;5047273;28;20094;-58
2021/06/27 05:28:42;;;;;;;3.78;0.20;;;38.30;44.30;;;34.98;31.50;100471.13;5047358;28;20124;-55
2021/06/27 05:31:08;;;;;;;1.48;0.40;;;38.50;44.10;;;34.71;31.66;100471.22;5047337;28;20060;-59
2021/06/27 05:33:34;;;;;;;0.50;0.30;;;38.10;44.20;;;34.59;31.63;100467.13;5047077;28;20067;-54
2021/06/27 05:36:00;;;;;;;2.47;0.30;;;38.60;43.60;;;35.41;30.42;100467.97;5047132;28;20054;-55
2021/06/27 05:38:26;;;;;;;2.97;0.30;;;39.10;42.40;;;35.59;30.10;100456.09;5047197;28;20026;-56
2021/06/27 05:40:53;;;;;;;0.55;0.20;;;39.50;42.20;;;35.51;29.80;100454.13;5047241;28;20029;-54
2021/06/27 05:43:19;;;;;;;2.30;0.70;;;39.80;41.60;;;35.55;29.02;100455.09;5047297;28;20029;-54
2021/06/27 05:45:45;;;;;;;3.13;0.20;;;39.50;41.20;;;35.70;28.60;100457.41;5050964;28;20055;-52
2021/06/27 05:48:11;;;;;;;1.77;0.20;;;39.70;40.80;;;35.82;28.05;100468.50;5051052;28;20068;-58
2021/06/27 05:50:37;;;;;;;3.42;0.25;;;39.60;40.70;;;35.48;28.67;100465.56;5045599;28;20043;-57
2021/06/27 05:53:03;;;;;;;4.28;0.20;;;38.90;41.40;;;35.38;28.97;100460.44;5031639;28;20158;-50
2021/06/27 05:55:30;;;;;;;0.32;0.20;;;39.10;40.80;;;35.15;28.86;100465.03;5038698;28;20037;-51
2021/06/27 05:57:56;;;;;;;0.63;0.20;;;39.30;40.40;;;34.57;29.42;100463.91;5046966;28;20146;-57
2021/06/27 06:00:22;;;;;;;1.80;0.10;;;38.90;40.60;;;35.19;28.82;100457.91;5051241;28;20033;-59
2021/06/27 06:02:47;;;;;;;1.75;0.20;;;39.00;40.60;;;35.18;28.68;100450.88;5051093;28;20414;-54
2021/06/27 06:05:14;;;;;;;2.10;0.20;;;39.00;40.40;;;34.44;29.47;100455.84;5049204;28;20071;-53
2021/06/27 06:07:39;;;;;;;0.73;0.20;;;38.80;40.50;;;34.65;29.34;100459.69;5050667;28;20036;-59
2021/06/27 06:10:07;;;;;;;0.85;0.20;;;38.50;40.90;;;35.30;28.52;100456.56;5050710;28;20029;-56
2021/06/27 06:12:33;;;;;;;0.38;0.28;;;38.90;40.70;;;34.63;29.40;100459.19;5050816;28;20389;-49
2021/06/27 06:14:59;;;;;;;2.55;0.30;;;38.80;40.60;;;34.20;30.58;100464.16;5050893;28;20144;-54
2021/06/27 06:17:24;;;;;;;1.73;0.75;;;38.70;40.80;;;34.59;29.89;100475.25;5050237;28;20115;-55
2021/06/27 06:19:52;;;;;;;1.00;0.20;;;39.20;40.20;;;35.11;29.55;100478.41;5050732;28;20389;-52
2021/06/27 06:22:20;;;;;;;0.95;0.20;;;39.60;40.10;;;34.10;31.12;100472.47;5048724;28;20077;-58
2021/06/27 06:24:47;;;;;;;1.85;0.30;;;39.20;40.30;;;34.29;30.52;100478.59;5065578;28;20036;-57
2021/06/27 06:27:13;;;;;;;0.85;0.38;;;39.20;40.00;;;34.88;29.55;100484.91;5065461;28;20102;-55
2021/06/27 06:29:40;;;;;;;1.27;0.25;;;39.30;39.80;;;35.37;29.05;100478.59;5050121;28;20037;-52
2021/06/27 06:32:06;;;;;;;0.98;0.20;;;39.80;39.70;;;35.75;28.77;100481.66;5050046;28;20488;-56
2021/06/27 06:34:32;;;;;;;2.00;0.30;;;40.30;39.40;;;35.52;29.10;100493.66;5050409;28;20079;-56
2021/06/27 06:36:58;;;;;;;1.48;0.30;;;39.70;40.30;;;35.62;29.11;100482.56;5050270;28;20545;-51
2021/06/27 06:39:24;;;;;;;2.45;0.20;;;39.90;39.70;;;35.08;29.61;100492.53;5050209;28;20128;-53
2021/06/27 06:41:50;;;;;;;0.63;0.17;;;39.70;39.80;;;35.89;28.47;100492.44;5050083;28;20033;-58
2021/06/27 06:44:16;;;;;;;1.67;0.30;;;40.00;39.40;;;36.55;27.63;100499.50;5049810;28;20400;-54
2021/06/27 06:46:42;;;;;;;0.40;0.10;;;40.80;38.60;;;35.29;28.95;100500.19;5049973;28;20029;-56
2021/06/27 06:49:09;;;;;;;1.50;0.28;;;39.70;39.40;;;34.94;29.33;100505.34;5049879;28;20033;-56
2021/06/27 06:51:35;;;;;;;0.43;0.20;;;39.00;40.00;;;34.58;30.15;100500.69;5064940;28;20419;-49
2021/06/27 06:54:01;;;;;;;0.75;0.20;;;38.30;41.00;;;34.76;30.20;100509.78;5049896;28;20025;-56
2021/06/27 06:56:27;;;;;;;1.02;0.20;;;38.50;41.10;;;34.85;29.51;100504.47;5048766;28;20072;-54
2021/06/27 06:58:53;;;;;;;3.28;0.40;;;38.60;40.60;;;34.72;29.69;100503.38;5049765;28;20071;-57
2021/06/27 07:01:19;;;;;;;2.50;0.40;;;38.70;40.60;;;35.08;29.12;100503.38;5049677;28;20605;-58
2021/06/27 07:03:45;;;;;;;0.73;0.20;;;39.00;40.00;;;35.13;28.63;100503.25;5049717;28;20086;-55
2021/06/27 07:06:12;;;;;;;1.75;0.25;;;39.00;39.70;;;35.85;27.51;100496.88;5049598;28;20527;-55
2021/06/27 07:08:39;;;;;;;3.17;0.28;;;39.80;38.80;;;35.78;27.47;100494.63;5049985;28;20037;-60
2021/06/27 07:11:05;;;;;;;5.65;0.25;;;39.90;38.90;;;35.38;28.02;100501.88;5049459;28;20031;-48
2021/06/27 07:13:30;;;;;;;3.17;0.52;;;39.00;40.10;;;33.91;30.26;100500.41;5049575;28;20025;-53
2021/06/27 07:15:56;;;;;;;2.78;0.30;;;36.60;43.00;;;33.38;31.53;100497.28;5049394;28;20040;-53
2021/06/27 07:18:22;;;;;;;4.05;0.25;;;35.20;45.40;;;32.81;32.77;100501.09;5049448;28;20117;-56
2021/06/27 07:20:49;;;;;;;1.52;0.30;;;34.30;46.60;;;32.28;33.38;100495.81;5049434;28;20062;-52
2021/06/27 07:23:16;;;;;;;1.90;0.30;;;33.50;48.10;;;31.94;34.23;100496.72;5049195;28;20025;-50
2021/06/27 07:25:42;;;;;;;0.93;0.30;;;33.00;49.00;;;31.59;34.91;100497.06;5064190;28;20138;-52
2021/06/27 07:28:08;;;;;;;1.55;0.30;;;32.70;49.70;;;31.71;34.81;100500.19;5049064;28;20065;-50
2021/06/27 07:30:34;;;;;;;1.38;0.50;;;32.40;49.70;;;31.72;34.46;100493.72;5049112;28;20037;-50
2021/06/27 07:33:00;;;;;;;2.88;0.30;;;32.30;49.60;;;31.42;34.00;100500.16;5049232;28;20142;-54
2021/06/27 07:35:26;;;;;;;5.68;0.45;;;32.20;49.20;;;31.40;34.43;100493.44;5049105;28;20488;-51
2021/06/27 07:37:52;;;;;;;1.42;0.20;;;32.00;49.60;;;31.45;34.34;100493.41;5048829;28;20036;-54
2021/06/27 07:40:19;;;;;;;2.75;0.25;;;32.10;49.60;;;31.78;33.96;100499.84;5048877;28;20460;-51
2021/06/27 07:42:45;;;;;;;0.60;0.20;;;32.20;49.70;;;31.93;33.52;100489.72;5047120;28;20047;-55
2021/06/27 07:45:12;;;;;;;1.48;0.25;;;32.40;49.50;;;32.29;32.88;100497.44;5064008;28;20033;-56
2021/06/27 07:47:38;;;;;;;2.90;0.30;;;32.70;49.30;;;32.61;32.53;100502.94;5048859;28;20484;-54
2021/06/27 07:50:06;;;;;;;0.60;0.20;;;33.00;49.00;;;32.74;32.50;100506.03;5049165;28;20036;-55
2021/06/27 07:52:36;;;;;;;1.42;0.22;;;33.20;48.50;;;32.70;32.60;100497.72;5048641;28;20045;-54
2021/06/27 07:55:04;;;;;;;0.93;0.13;;;33.20;48.70;;;32.88;32.21;100488.06;5063583;28;20037;-50
2021/06/27 07:57:29;;;;;;;0.73;0.20;;;33.30;48.70;;;33.05;31.67;100491.03;5048482;28;20372;-53
2021/06/27 07:59:55;;;;;;;1.45;0.30;;;33.50;48.10;;;33.09;31.63;100494.72;5063923;28;20029;-54
2021/06/27 08:02:21;;;;;;;1.50;0.47;;;33.50;48.20;;;32.90;32.30;100485.88;5048546;28;20033;-51
2021/06/27 08:04:47;;;;;;;3.80;0.30;;;33.50;48.50;;;32.85;32.57;100488.63;5047141;28;20080;-54
2021/06/27 08:07:13;;;;;;;1.05;0.30;;;33.30;48.80;;;33.09;32.22;100489.34;5048943;28;20029;-53
2021/06/27 08:09:39;;;;;;;0.50;0.20;;;33.40;48.70;;;33.05;32.53;100492.94;5048740;28;20352;-52
2021/06/27 08:12:06;;;;;;;3.30;0.30;;;33.50;48.80;;;33.07;31.97;100482.66;5048417;28;20071;-53
2021/06/27 08:14:32;;;;;;;3.10;0.57;;;33.50;48.70;;;33.08;31.80;100485.06;5048583;28;20117;-58
2021/06/27 08:16:58;;;;;;;1.67;0.40;;;33.50;48.10;;;32.86;31.80;100482.16;5048271;28;20029;-53
2021/06/27 08:19:24;;;;;;;1.30;0.30;;;33.40;48.30;;;33.16;31.48;100484.38;5048470;28;20142;-56
2021/06/27 08:21:50;;;;;;;0.77;0.22;;;33.50;48.30;;;33.22;31.88;100475.09;5048616;28;20384;-53
2021/06/27 08:24:16;;;;;;;1.58;0.20;;;33.60;48.10;;;33.19;31.15;100478.38;5063195;28;20025;-56
2021/06/27 08:26:42;;;;;;;3.45;0.30;;;33.70;47.60;;;32.86;31.82;100476.75;5048039;28;20059;-56
2021/06/27 08:29:08;;;;;;;1.45;0.30;;;33.50;47.90;;;32.95;32.21;100475.81;5048262;28;20079;-53
2021/06/27 08:31:34;;;;;;;0.68;0.20;;;33.30;48.70;;;33.21;32.01;100478.09;5048058;28;20479;-53
2021/06/27 08:34:00;;;;;;;1.15;0.20;;;33.50;48.40;;;33.20;31.65;100469.19;5047980;28;20102;-56
2021/06/27 08:36:27;;;;;;;1.60;0.30;;;33.70;48.20;;;32.79;32.08;100457.44;5048108;28;20538;-56
2021/06/27 08:38:53;;;;;;;2.38;0.30;;;33.40;48.50;;;32.81;32.24;100457.94;5046297;28;20146;-55
2021/06/27 08:41:19;;;;;;;1.23;0.30;;;33.20;48.60;;;32.97;31.93;100451.22;5047850;28;20055;-56
2021/06/27 08:43:45;;;;;;;2.60;0.28;;;33.40;48.30;;;32.69;32.50;100452.94;5048097;28;20033;-55
2021/06/27 08:46:14;;;;;;;3.00;0.20;;;33.20;48.80;;;32.81;31.87;100457.94;5047662;28;20029;-54
2021/06/27 08:48:42;;;;;;;0.80;0.30;;;33.10;48.70;;;33.49;31.00;100460.91;5062907;28;20078;-51
2021/06/27 08:51:09;;;;;;;0.68;0.20;;;33.50;48.30;;;33.84;30.25;100451.38;5047721;28;20074;-56
2021/06/27 08:53:39;;;;;;;2.92;0.30;;;34.00;47.50;;;34.04;29.89;100449.34;5047482;28;20029;-55
2021/06/27 08:56:08;;;;;;;0.80;0.25;;;34.20;47.00;;;34.41;29.83;100448.34;5062561;28;20408;-50
2021/06/27 08:58:45;;;;;;;1.80;0.30;;;34.60;47.20;;;33.84;29.75;100456.78;5062910;28;20475;-53
2021/06/27 09:01:24;;;;;;;1.00;0.32;;;34.40;46.50;;;33.84;30.64;100454.06;5047550;28;20039;-52
2021/06/27 09:03:52;;;;;;;2.17;0.20;;;34.20;47.30;;;34.42;30.05;100456.16;5062563;28;20112;-58
2021/06/27 09:06:30;;;;;;;5.25;0.20;;;34.60;47.50;;;34.56;29.74;100461.53;5062668;28;20200;-53
2021/06/27 09:09:21;;;;;;;0.82;0.47;;;34.80;47.20;;;34.78;28.93;100445.31;5047681;28;20049;-55
2021/06/27 09:12:08;;;;;;;1.65;0.40;;;35.00;46.40;;;34.84;28.72;100446.84;5062668;28;20469;-55
2021/06/27 09:14:39;;;;;;;3.10;0.55;;;35.10;46.20;;;34.70;28.64;100447.97;5047189;28;20045;-55
2021/06/27 09:17:19;;;;;;;0.40;0.20;;;35.10;45.70;;;34.71;27.56;100452.25;5047550;28;20341;-58
2021/06/27 09:19:55;;;;;;;2.70;0.30;;;35.10;45.00;;;34.36;27.30;100449.25;5047000;28;20499;-55
2021/06/27 09:22:52;;;;;;;1.20;0.20;;;34.90;44.00;;;34.50;27.28;100454.66;5062437;28;20051;-58
2021/06/27 09:25:27;;;;;;;1.70;0.20;;;34.80;44.40;;;34.44;27.04;100453.97;5044420;28;20139;-55
2021/06/27 09:28:10;;;;;;;0.90;0.20;;;34.80;44.10;;;34.68;26.31;100447.47;5047259;28;20559;-55
2021/06/27 09:30:48;;;;;;;3.38;0.20;;;35.00;43.60;;;35.00;26.29;100449.97;5047294;28;20106;-57
2021/06/27 09:33:19;;;;;;;0.35;0.20;;;35.30;43.20;;;34.89;26.57;100449.44;5047110;28;20087;-55
2021/06/27 09:36:10;;;;;;;0.82;0.30;;;35.30;43.40;;;34.77;27.04;100448.34;5047229;28;20307;-55
2021/06/27 09:38:51;;;;;;;1.75;0.28;;;35.30;44.10;;;35.08;26.46;100457.34;5047050;28;20109;-51
2021/06/27 09:41:32;;;;;;;3.15;0.40;;;35.30;43.90;;;34.85;26.35;100451.16;5047270;28;20637;-48
2021/06/27 09:44:08;;;;;;;2.25;0.40;;;35.20;43.50;;;34.86;26.47;100454.66;5062418;28;20310;-54
2021/06/27 09:46:46;;;;;;;0.82;0.30;;;35.20;43.50;;;35.01;26.82;100451.56;5062358;28;20357;-56
2021/06/27 09:49:32;;;;;;;0.60;0.30;;;35.30;43.70;;;35.10;26.34;100446.22;5061479;28;20115;-55
2021/06/27 09:52:08;;;;;;;0.75;0.20;;;35.40;43.10;;;35.43;26.13;100446.78;5045463;28;20037;-56
2021/06/27 09:54:36;;;;;;;3.85;0.30;;;35.80;43.30;;;35.32;27.15;100448.94;5062194;28;20440;-59
2021/06/27 09:57:03;;;;;;;2.35;1.20;;;35.60;44.20;;;35.70;26.83;100451.19;5061912;28;20111;-52
2021/06/27 09:59:41;;;;;;;1.85;0.20;;;35.90;44.20;;;35.80;25.63;100440.91;5047000;28;20073;-52
2021/06/27 10:02:08;;;;;;;1.98;0.20;;;36.10;43.30;;;35.76;26.13;100431.78;5062013;28;20064;-57
2021/06/27 10:04:36;;;;;;;0.65;0.20;;;36.00;43.60;;;35.72;26.59;100432.72;5046850;28;20037;-51
2021/06/27 10:07:05;;;;;;;1.00;0.40;;;36.00;43.70;;;36.22;26.20;100425.06;5047150;28;20104;-53
2021/06/27 10:09:41;;;;;;;1.15;0.20;;;36.40;43.60;;;35.81;26.02;100415.41;5046808;28;20489;-53
2021/06/27 10:12:16;;;;;;;0.52;0.20;;;36.20;43.20;;;36.19;25.83;100415.66;5062107;28;20040;-58
2021/06/27 10:14:49;;;;;;;0.73;0.30;;;36.30;43.00;;;36.34;25.75;100411.72;5061897;28;20036;-57
2021/06/27 10:17:20;;;;;;;0.50;0.20;;;36.50;43.20;;;36.50;25.51;100418.25;5045232;28;20099;-55
2021/06/27 10:19:47;;;;;;;1.95;0.28;;;36.80;42.90;;;36.70;25.50;100419.53;5046698;28;20033;-55